Darstellungsparameter: Aktuell verwendete Einstellungen:
Skalierung der Graphiken ... ?
xyx+y,   Skalierungsfaktor:      Skalierung: Modus: x, Faktor: 1
Darstellungszeitraum ... ?
Vom - - bis: - -   Zeitraum: 27.02.2021 - 27.02.2021
Min/Max/Avg-Anzeige ... ?
Zeige MMA aktuell
Zeige MMA Monat
Zeige MMA alles
Zeige --A aktuell
Zeige --A Monat
Zeige --A alles
Keine MMA-Anzeige
MMA:
Keine MMA-Graphiken
MMA-Basis: 27.02.2021 - 27.02.2021
Quicknavigation für Darstellung... ?
Tage:      1T, 2T, 3T, 5T -1T -2T -3T -5T +1T +2T +3T +5T
Wochen: 1W, 2W, 3W -1W -2W -3W +1W +2W +3W
Monate: 1M, 3M, 6M -1M -3M -6M +1M +3M +6M
Jahre:    1J, 3J, 5J, 10J -1J -3J -5J -10J +1J +3J +5J +10J
Nutze für die Darstellung ... ?
Originaldaten oder Mittelwerte auf ...
Stundenbasis Tagesbasis Wochenbasis
Monatsbasis Jahresbasis      Datenbasis: Original-Daten
Darstellen als:
Statistik (Auto) Statistik J:M      Darstellung:

Der gewünschte Datumsbereich war nicht gültig/verfügbar und wurde korrigiert....
Das angegebene Enddatum (28.08.2029 23:59:59) liegt in der Zukunft.
Das angegebene Startdatum (28.08.2029 00:00:00) liegt in der Zukunft.


Zur Graphik,    zurück zur Übersicht aller Sensoren.
 
Tabellarische Datenbersicht: ?
 
Sensor: Nr:Datum:Temp:Feuchte:Taupunkt:
Aussen-T/F 1 27-02-2021 01:00:00 1.7 C 94 % 0.84 C
2 27-02-2021 01:05:00 1.6 C 94 % 0.74 C
3 27-02-2021 01:10:00 1.6 C 94 % 0.74 C
4 27-02-2021 01:15:00 1.5 C 94 % 0.64 C
5 27-02-2021 01:20:00 1.4 C 94 % 0.54 C
6 27-02-2021 01:25:00 1.4 C 94 % 0.54 C
7 27-02-2021 01:30:00 1.3 C 94 % 0.44 C
8 27-02-2021 01:35:00 1.3 C 94 % 0.44 C
9 27-02-2021 01:40:00 1.3 C 94 % 0.44 C
10 27-02-2021 01:45:00 1.2 C 94 % 0.34 C
11 27-02-2021 01:50:00 1.2 C 94 % 0.34 C
12 27-02-2021 01:55:00 1.1 C 94 % 0.24 C
13 27-02-2021 02:00:00 1.1 C 94 % 0.24 C
14 27-02-2021 02:05:00 1 C 94 % 0.15 C
15 27-02-2021 02:10:00 0.9 C 94 % 0.05 C
16 27-02-2021 02:15:00 0.9 C 94 % 0.05 C
17 27-02-2021 02:20:00 0.9 C 94 % 0.05 C
18 27-02-2021 02:25:00 0.9 C 94 % 0.05 C
19 27-02-2021 02:30:00 0.9 C 94 % 0.05 C
20 27-02-2021 02:35:00 0.8 C 94 % -0.05 C
21 27-02-2021 02:40:00 0.8 C 94 % -0.05 C
22 27-02-2021 02:45:00 0.7 C 94 % -0.15 C
23 27-02-2021 02:50:00 0.7 C 94 % -0.15 C
24 27-02-2021 02:55:00 0.7 C 94 % -0.15 C
25 27-02-2021 03:00:00 0.7 C 95 % -0.01 C
Sensor: Nr:Datum:Temp:Feuchte:Taupunkt:
Aussen-T/F 26 27-02-2021 03:05:00 0.7 C 95 % -0.01 C
27 27-02-2021 03:10:00 0.7 C 95 % -0.01 C
28 27-02-2021 03:15:00 0.6 C 95 % -0.11 C
29 27-02-2021 03:20:00 0.6 C 94 % -0.25 C
30 27-02-2021 03:25:00 0.5 C 94 % -0.35 C
31 27-02-2021 03:30:00 0.4 C 94 % -0.45 C
32 27-02-2021 03:35:00 0.3 C 94 % -0.55 C
33 27-02-2021 03:40:00 0.3 C 95 % -0.4 C
34 27-02-2021 03:45:00 0.3 C 95 % -0.4 C
35 27-02-2021 03:50:00 0.3 C 95 % -0.4 C
36 27-02-2021 03:55:00 0.2 C 95 % -0.5 C
37 27-02-2021 04:00:00 0.2 C 95 % -0.5 C
38 27-02-2021 04:05:00 0.2 C 95 % -0.5 C
39 27-02-2021 04:10:00 0.1 C 95 % -0.6 C
40 27-02-2021 04:15:00 0.1 C 95 % -0.6 C
41 27-02-2021 04:20:00 0.1 C 95 % -0.6 C
42 27-02-2021 04:25:00 0.1 C 95 % -0.6 C
43 27-02-2021 04:30:00 0.1 C 95 % -0.6 C
44 27-02-2021 04:35:00 0 C 95 % -0.7 C
45 27-02-2021 04:40:00 -0.1 C 95 % -0.8 C
46 27-02-2021 04:45:00 -0.1 C 95 % -0.8 C
47 27-02-2021 04:50:00 -0.1 C 95 % -0.8 C
48 27-02-2021 04:55:00 -0.1 C 95 % -0.8 C
49 27-02-2021 05:00:00 0 C 95 % -0.7 C
50 27-02-2021 05:05:00 -0.1 C 95 % -0.8 C
Sensor: Nr:Datum:Temp:Feuchte:Taupunkt:
Aussen-T/F 51 27-02-2021 05:10:00 -0.1 C 95 % -0.8 C
52 27-02-2021 05:15:00 -0.1 C 95 % -0.8 C
53 27-02-2021 05:20:00 -0.1 C 95 % -0.8 C
54 27-02-2021 05:25:00 -0.2 C 95 % -0.9 C
55 27-02-2021 05:30:00 -0.2 C 95 % -0.9 C
56 27-02-2021 05:35:00 -0.2 C 95 % -0.9 C
57 27-02-2021 05:40:00 -0.2 C 95 % -0.9 C
58 27-02-2021 05:45:00 -0.3 C 95 % -1 C
59 27-02-2021 05:50:00 -0.3 C 95 % -1 C
60 27-02-2021 05:55:00 -0.3 C 95 % -1 C
61 27-02-2021 06:00:00 -0.3 C 95 % -1 C
62 27-02-2021 06:05:00 -0.3 C 95 % -1 C
63 27-02-2021 06:10:00 -0.3 C 95 % -1 C
64 27-02-2021 06:15:00 -0.3 C 95 % -1 C
65 27-02-2021 06:20:00 -0.3 C 95 % -1 C
66 27-02-2021 06:25:00 -0.4 C 95 % -1.1 C
67 27-02-2021 06:30:00 -0.4 C 95 % -1.1 C
68 27-02-2021 06:35:00 -0.4 C 95 % -1.1 C
69 27-02-2021 06:40:00 -0.5 C 95 % -1.2 C
70 27-02-2021 06:45:00 -0.5 C 95 % -1.2 C
71 27-02-2021 06:50:00 -0.6 C 95 % -1.3 C
72 27-02-2021 06:55:00 -0.6 C 95 % -1.3 C
73 27-02-2021 07:00:00 -0.6 C 95 % -1.3 C
74 27-02-2021 07:05:00 -0.6 C 95 % -1.3 C
75 27-02-2021 07:10:00 -0.6 C 95 % -1.3 C
Sensor: Nr:Datum:Temp:Feuchte:Taupunkt:
Aussen-T/F 76 27-02-2021 07:15:00 -0.5 C 95 % -1.2 C
77 27-02-2021 07:20:00 -0.4 C 95 % -1.1 C
78 27-02-2021 07:25:00 -0.3 C 96 % -0.86 C
79 27-02-2021 07:30:00 -0.2 C 96 % -0.76 C
80 27-02-2021 07:35:00 -0.1 C 96 % -0.66 C
81 27-02-2021 07:40:00 0 C 96 % -0.56 C
82 27-02-2021 07:45:00 0.2 C 96 % -0.36 C
83 27-02-2021 07:50:00 0.3 C 96 % -0.26 C
84 27-02-2021 07:55:00 0.5 C 96 % -0.06 C
85 27-02-2021 08:00:00 0.7 C 96 % 0.14 C
86 27-02-2021 08:05:00 0.7 C 96 % 0.14 C
87 27-02-2021 08:10:00 0.8 C 96 % 0.24 C
88 27-02-2021 08:15:00 0.9 C 96 % 0.34 C
89 27-02-2021 08:20:00 1 C 96 % 0.44 C
90 27-02-2021 08:25:00 1.2 C 96 % 0.63 C
91 27-02-2021 08:30:00 1.3 C 96 % 0.73 C
92 27-02-2021 08:35:00 1.4 C 96 % 0.83 C
93 27-02-2021 08:40:00 1.6 C 97 % 1.18 C
94 27-02-2021 08:45:00 1.7 C 96 % 1.13 C
95 27-02-2021 08:50:00 1.8 C 97 % 1.38 C
96 27-02-2021 08:55:00 1.9 C 97 % 1.48 C
97 27-02-2021 09:00:00 2 C 96 % 1.43 C
98 27-02-2021 09:05:00 2.1 C 96 % 1.53 C
99 27-02-2021 09:10:00 2.2 C 97 % 1.77 C
100 27-02-2021 09:15:00 2.2 C 97 % 1.77 C
Sensor: Nr:Datum:Temp:Feuchte:Taupunkt:
Aussen-T/F 101 27-02-2021 09:20:00 2.3 C 96 % 1.73 C
102 27-02-2021 09:25:00 2.3 C 96 % 1.73 C
103 27-02-2021 09:30:00 2.3 C 96 % 1.73 C
104 27-02-2021 09:35:00 2.4 C 97 % 1.97 C
105 27-02-2021 09:40:00 2.5 C 96 % 1.93 C
106 27-02-2021 09:45:00 2.6 C 96 % 2.03 C
107 27-02-2021 09:50:00 2.7 C 96 % 2.13 C
108 27-02-2021 09:55:00 2.7 C 97 % 2.27 C
109 27-02-2021 10:00:00 2.8 C 96 % 2.23 C
110 27-02-2021 10:05:00 2.8 C 96 % 2.23 C
111 27-02-2021 10:10:00 2.8 C 96 % 2.23 C
112 27-02-2021 10:15:00 2.8 C 96 % 2.23 C
113 27-02-2021 10:20:00 2.9 C 96 % 2.33 C
114 27-02-2021 10:25:00 3 C 96 % 2.43 C
115 27-02-2021 10:30:00 3.1 C 96 % 2.53 C
116 27-02-2021 10:35:00 3.1 C 96 % 2.53 C
117 27-02-2021 10:40:00 3.2 C 96 % 2.63 C
118 27-02-2021 10:45:00 3.4 C 96 % 2.82 C
119 27-02-2021 10:50:00 3.6 C 96 % 3.02 C
120 27-02-2021 10:55:00 3.7 C 96 % 3.12 C
121 27-02-2021 11:00:00 3.8 C 96 % 3.22 C
122 27-02-2021 11:05:00 3.9 C 96 % 3.32 C
123 27-02-2021 11:10:00 4 C 96 % 3.42 C
124 27-02-2021 11:15:00 4 C 96 % 3.42 C
125 27-02-2021 11:20:00 4.1 C 96 % 3.52 C
Sensor: Nr:Datum:Temp:Feuchte:Taupunkt:
Aussen-T/F 126 27-02-2021 11:25:00 4.3 C 96 % 3.72 C
127 27-02-2021 11:30:00 4.4 C 96 % 3.82 C
128 27-02-2021 11:35:00 4.4 C 94 % 3.52 C
129 27-02-2021 11:40:00 4.6 C 94 % 3.72 C
130 27-02-2021 11:45:00 4.7 C 94 % 3.82 C
131 27-02-2021 11:50:00 4.8 C 93 % 3.77 C
132 27-02-2021 11:55:00 4.8 C 93 % 3.77 C
133 27-02-2021 12:00:00 4.9 C 93 % 3.87 C
134 27-02-2021 12:05:00 5.1 C 93 % 4.06 C
135 27-02-2021 12:10:00 5.2 C 92 % 4.01 C
136 27-02-2021 12:15:00 5.4 C 91 % 4.05 C
137 27-02-2021 12:20:00 5.7 C 91 % 4.35 C
138 27-02-2021 12:25:00 5.9 C 90 % 4.39 C
139 27-02-2021 12:30:00 6.2 C 89 % 4.53 C
140 27-02-2021 12:35:00 6.6 C 89 % 4.92 C
141 27-02-2021 12:40:00 6.8 C 87 % 4.79 C
142 27-02-2021 12:45:00 7.1 C 86 % 4.92 C
143 27-02-2021 12:50:00 7.3 C 85 % 4.95 C
144 27-02-2021 12:55:00 7.6 C 84 % 5.07 C
145 27-02-2021 13:00:00 7.7 C 83 % 5 C
146 27-02-2021 13:05:00 7.9 C 81 % 4.85 C
147 27-02-2021 13:10:00 7.9 C 78 % 4.31 C
148 27-02-2021 13:15:00 8.1 C 79 % 4.68 C
149 27-02-2021 13:20:00 8.3 C 79 % 4.88 C
150 27-02-2021 13:25:00 8.4 C 76 % 4.42 C
Sensor: Nr:Datum:Temp:Feuchte:Taupunkt:
Aussen-T/F 151 27-02-2021 13:30:00 8.3 C 76 % 4.33 C
152 27-02-2021 13:35:00 8.3 C 78 % 4.7 C
153 27-02-2021 13:40:00 8.4 C 77 % 4.61 C
154 27-02-2021 13:45:00 8.6 C 77 % 4.8 C
155 27-02-2021 13:50:00 8.7 C 75 % 4.52 C
156 27-02-2021 13:55:00 8.9 C 74 % 4.53 C
157 27-02-2021 14:00:00 9 C 73 % 4.43 C
158 27-02-2021 14:05:00 9.1 C 74 % 4.72 C
159 27-02-2021 14:10:00 9.2 C 73 % 4.62 C
160 27-02-2021 14:15:00 9.4 C 73 % 4.81 C
161 27-02-2021 14:20:00 9.5 C 71 % 4.51 C
162 27-02-2021 14:25:00 9.6 C 71 % 4.61 C
163 27-02-2021 14:30:00 9.5 C 70 % 4.31 C
164 27-02-2021 14:35:00 9.4 C 71 % 4.42 C
165 27-02-2021 14:40:00 9.4 C 70 % 4.21 C
166 27-02-2021 14:45:00 9.4 C 71 % 4.42 C
167 27-02-2021 14:50:00 9.4 C 70 % 4.21 C
168 27-02-2021 14:55:00 9.4 C 69 % 4.01 C
169 27-02-2021 15:00:00 9.5 C 70 % 4.31 C
170 27-02-2021 15:05:00 9.6 C 69 % 4.2 C
171 27-02-2021 15:10:00 9.7 C 70 % 4.5 C
172 27-02-2021 15:15:00 9.8 C 69 % 4.39 C
173 27-02-2021 15:20:00 9.8 C 67 % 3.97 C
174 27-02-2021 15:25:00 9.7 C 68 % 4.09 C
175 27-02-2021 15:30:00 9.7 C 68 % 4.09 C
Sensor: Nr:Datum:Temp:Feuchte:Taupunkt:
Aussen-T/F 176 27-02-2021 15:35:00 9.8 C 68 % 4.18 C
177 27-02-2021 15:40:00 10.1 C 68 % 4.47 C
178 27-02-2021 15:45:00 10.2 C 67 % 4.36 C
179 27-02-2021 15:50:00 10.2 C 67 % 4.36 C
180 27-02-2021 15:55:00 10.2 C 66 % 4.14 C
181 27-02-2021 16:00:00 10.2 C 66 % 4.14 C
182 27-02-2021 16:05:00 10.3 C 66 % 4.24 C
183 27-02-2021 16:10:00 10.3 C 66 % 4.24 C
184 27-02-2021 16:15:00 10.4 C 65 % 4.11 C
185 27-02-2021 16:20:00 10.6 C 65 % 4.3 C
186 27-02-2021 16:25:00 10.7 C 64 % 4.18 C
187 27-02-2021 16:30:00 10.7 C 64 % 4.18 C
188 27-02-2021 16:35:00 10.7 C 63 % 3.95 C
189 27-02-2021 16:40:00 10.8 C 63 % 4.05 C
190 27-02-2021 16:45:00 10.8 C 63 % 4.05 C
191 27-02-2021 16:50:00 10.8 C 63 % 4.05 C
192 27-02-2021 16:55:00 10.8 C 63 % 4.05 C
193 27-02-2021 17:00:00 10.9 C 63 % 4.14 C
194 27-02-2021 17:05:00 10.9 C 63 % 4.14 C
195 27-02-2021 17:10:00 11.1 C 63 % 4.33 C
196 27-02-2021 17:15:00 11.1 C 63 % 4.33 C
197 27-02-2021 17:20:00 11.1 C 64 % 4.56 C
198 27-02-2021 17:25:00 11.3 C 67 % 5.4 C
199 27-02-2021 17:30:00 11.2 C 66 % 5.09 C
200 27-02-2021 17:35:00 11.1 C 67 % 5.21 C
Sensor: Nr:Datum:Temp:Feuchte:Taupunkt:
Aussen-T/F 201 27-02-2021 17:40:00 10.9 C 68 % 5.23 C
202 27-02-2021 17:45:00 10.7 C 69 % 5.25 C
203 27-02-2021 17:50:00 10.3 C 70 % 5.08 C
204 27-02-2021 17:55:00 9.8 C 71 % 4.8 C
205 27-02-2021 18:00:00 9.3 C 73 % 4.72 C
206 27-02-2021 18:05:00 8.8 C 74 % 4.43 C
207 27-02-2021 18:10:00 8.3 C 76 % 4.33 C
208 27-02-2021 18:15:00 7.9 C 77 % 4.12 C
209 27-02-2021 18:20:00 7.5 C 78 % 3.92 C
210 27-02-2021 18:25:00 7.2 C 79 % 3.81 C
211 27-02-2021 18:30:00 6.8 C 80 % 3.6 C
212 27-02-2021 18:35:00 6.6 C 81 % 3.58 C
213 27-02-2021 18:40:00 6.4 C 82 % 3.56 C
214 27-02-2021 18:45:00 6.2 C 82 % 3.36 C
215 27-02-2021 18:50:00 6.1 C 82 % 3.26 C
216 27-02-2021 18:55:00 5.9 C 83 % 3.24 C
217 27-02-2021 19:00:00 5.7 C 83 % 3.04 C
218 27-02-2021 19:05:00 5.6 C 84 % 3.12 C
219 27-02-2021 19:10:00 5.6 C 85 % 3.28 C
220 27-02-2021 19:15:00 5.4 C 85 % 3.09 C
221 27-02-2021 19:20:00 5.3 C 85 % 2.99 C
222 27-02-2021 19:25:00 5.3 C 85 % 2.99 C
223 27-02-2021 19:30:00 5.2 C 86 % 3.05 C
224 27-02-2021 19:35:00 5.1 C 86 % 2.96 C
225 27-02-2021 19:40:00 5 C 87 % 3.02 C
Sensor: Nr:Datum:Temp:Feuchte:Taupunkt:
Aussen-T/F 226 27-02-2021 19:45:00 4.9 C 87 % 2.92 C
227 27-02-2021 19:50:00 4.8 C 87 % 2.82 C
228 27-02-2021 19:55:00 4.8 C 88 % 2.99 C
229 27-02-2021 20:00:00 4.7 C 88 % 2.89 C
230 27-02-2021 20:05:00 4.6 C 89 % 2.95 C
231 27-02-2021 20:10:00 4.5 C 88 % 2.69 C
232 27-02-2021 20:15:00 4.4 C 89 % 2.75 C
233 27-02-2021 20:20:00 4.3 C 89 % 2.65 C
234 27-02-2021 20:25:00 4.2 C 89 % 2.55 C
235 27-02-2021 20:30:00 4.3 C 90 % 2.81 C
236 27-02-2021 20:35:00 4.5 C 90 % 3.01 C
237 27-02-2021 20:40:00 4.7 C 90 % 3.2 C
238 27-02-2021 20:45:00 4.8 C 89 % 3.14 C
239 27-02-2021 20:50:00 5.1 C 89 % 3.44 C
240 27-02-2021 20:55:00 5.4 C 88 % 3.58 C
241 27-02-2021 21:00:00 5.6 C 87 % 3.61 C
242 27-02-2021 21:05:00 5.7 C 87 % 3.71 C
243 27-02-2021 21:10:00 5.9 C 85 % 3.58 C
244 27-02-2021 21:15:00 5.9 C 85 % 3.58 C
245 27-02-2021 21:20:00 5.9 C 85 % 3.58 C
246 27-02-2021 21:25:00 5.9 C 85 % 3.58 C
247 27-02-2021 21:30:00 5.9 C 85 % 3.58 C
248 27-02-2021 21:35:00 5.9 C 85 % 3.58 C
249 27-02-2021 21:40:00 5.9 C 85 % 3.58 C
250 27-02-2021 21:45:00 5.9 C 85 % 3.58 C
Sensor: Nr:Datum:Temp:Feuchte:Taupunkt:
Aussen-T/F 251 27-02-2021 21:50:00 5.8 C 85 % 3.48 C
252 27-02-2021 21:55:00 5.8 C 85 % 3.48 C
253 27-02-2021 22:00:00 5.9 C 85 % 3.58 C
254 27-02-2021 22:05:00 5.9 C 85 % 3.58 C
255 27-02-2021 22:10:00 5.9 C 84 % 3.41 C
256 27-02-2021 22:15:00 6 C 84 % 3.51 C
257 27-02-2021 22:20:00 6 C 84 % 3.51 C
258 27-02-2021 22:25:00 5.9 C 84 % 3.41 C
259 27-02-2021 22:30:00 5.9 C 83 % 3.24 C
260 27-02-2021 22:35:00 5.9 C 83 % 3.24 C
261 27-02-2021 22:40:00 5.9 C 83 % 3.24 C
262 27-02-2021 22:45:00 5.8 C 83 % 3.14 C
263 27-02-2021 22:50:00 5.8 C 83 % 3.14 C
264 27-02-2021 22:55:00 5.8 C 83 % 3.14 C

Legende:
   Min
   Max


Maximal/Minimal-Werte vom 27.02.2021 - 27.02.2021

Sensor Min Max Avg
Temp
(Aussen-T/F)
-0.6 °C
27-02-2021  06:50:00
11.3 °C
27-02-2021  17:25:00
4.41 °C
Feuchte
(Aussen-T/F)
63 %
27-02-2021  16:35:00
97 %
27-02-2021  08:40:00
86.64 %
Taupunkt
(Aussen-T/F)
-1.3 C
27-02-2021  06:50:00
5.4 C
27-02-2021  17:25:00
2.22 C

Die Daten stammen von einer Davis Vantage Pro 2 Wetter-Station und werden unter Linux mit der Software wview2wettercgi und aufbereitet. Alle Angaben erfolgen ohne Gewähr für ihre Vollständigkeit oder Richtigkeit.
Kontakt: Rainer Krienke krienke@uni-koblenz.de . Meine Webseiten an der Uni Koblenz oder privat.
Version: $Revision: 0.78 $